sensor_id;sensor_type;location;lat;lon;timestamp;temperature;humidity
71173;DHT22;58875;51.996;4.504;2022-10-17T00:01:32;15.67;83.71
71173;DHT22;58875;51.996;4.504;2022-10-17T00:03:57;15.68;83.61
71173;DHT22;58875;51.996;4.504;2022-10-17T00:06:23;15.65;83.70
71173;DHT22;58875;51.996;4.504;2022-10-17T00:08:49;15.58;83.98
71173;DHT22;58875;51.996;4.504;2022-10-17T00:11:17;15.54;84.14
71173;DHT22;58875;51.996;4.504;2022-10-17T00:13:44;15.53;84.21
71173;DHT22;58875;51.996;4.504;2022-10-17T00:16:11;15.51;84.23
71173;DHT22;58875;51.996;4.504;2022-10-17T00:18:37;15.54;84.24
71173;DHT22;58875;51.996;4.504;2022-10-17T00:21:03;15.51;84.19
71173;DHT22;58875;51.996;4.504;2022-10-17T00:23:28;15.50;84.17
71173;DHT22;58875;51.996;4.504;2022-10-17T00:25:59;15.53;84.14
71173;DHT22;58875;51.996;4.504;2022-10-17T00:28:25;15.51;84.12
71173;DHT22;58875;51.996;4.504;2022-10-17T00:30:55;15.43;84.28
71173;DHT22;58875;51.996;4.504;2022-10-17T00:33:21;15.46;84.38
71173;DHT22;58875;51.996;4.504;2022-10-17T00:35:46;15.47;84.48
71173;DHT22;58875;51.996;4.504;2022-10-17T00:38:12;15.43;84.67
71173;DHT22;58875;51.996;4.504;2022-10-17T00:40:37;15.41;84.72
71173;DHT22;58875;51.996;4.504;2022-10-17T00:43:03;15.34;84.97
71173;DHT22;58875;51.996;4.504;2022-10-17T00:45:30;15.41;85.07
71173;DHT22;58875;51.996;4.504;2022-10-17T00:48:04;15.37;85.10
71173;DHT22;58875;51.996;4.504;2022-10-17T00:50:31;15.37;85.13
71173;DHT22;58875;51.996;4.504;2022-10-17T00:53:00;15.36;85.29
71173;DHT22;58875;51.996;4.504;2022-10-17T00:55:30;15.41;85.22
71173;DHT22;58875;51.996;4.504;2022-10-17T00:58:02;15.50;85.08
71173;DHT22;58875;51.996;4.504;2022-10-17T01:00:29;15.51;85.11
71173;DHT22;58875;51.996;4.504;2022-10-17T01:02:55;15.47;85.16
71173;DHT22;58875;51.996;4.504;2022-10-17T01:05:20;15.44;85.12
71173;DHT22;58875;51.996;4.504;2022-10-17T01:07:49;15.53;85.07
71173;DHT22;58875;51.996;4.504;2022-10-17T01:10:15;15.51;84.99
71173;DHT22;58875;51.996;4.504;2022-10-17T01:21:29;15.50;84.94
71173;DHT22;58875;51.996;4.504;2022-10-17T01:33:02;15.50;85.00
71173;DHT22;58875;51.996;4.504;2022-10-17T01:35:42;15.43;85.24
71173;DHT22;58875;51.996;4.504;2022-10-17T01:38:32;15.34;85.65
71173;DHT22;58875;51.996;4.504;2022-10-17T01:41:09;15.39;85.44
71173;DHT22;58875;51.996;4.504;2022-10-17T01:46:37;15.36;85.65
71173;DHT22;58875;51.996;4.504;2022-10-17T01:49:06;15.39;85.55
71173;DHT22;58875;51.996;4.504;2022-10-17T01:51:42;15.43;85.52
71173;DHT22;58875;51.996;4.504;2022-10-17T01:54:34;15.40;85.65
71173;DHT22;58875;51.996;4.504;2022-10-17T01:57:06;15.43;85.72
71173;DHT22;58875;51.996;4.504;2022-10-17T01:59:45;15.49;85.67
71173;DHT22;58875;51.996;4.504;2022-10-17T02:02:14;15.51;85.64
71173;DHT22;58875;51.996;4.504;2022-10-17T02:04:41;15.53;85.51
71173;DHT22;58875;51.996;4.504;2022-10-17T02:07:09;15.54;85.54
71173;DHT22;58875;51.996;4.504;2022-10-17T02:09:35;15.49;86.00
71173;DHT22;58875;51.996;4.504;2022-10-17T02:17:18;15.61;85.82
71173;DHT22;58875;51.996;4.504;2022-10-17T02:22:42;15.60;85.76
71173;DHT22;58875;51.996;4.504;2022-10-17T02:25:20;15.61;86.01
71173;DHT22;58875;51.996;4.504;2022-10-17T02:27:53;15.61;85.89
71173;DHT22;58875;51.996;4.504;2022-10-17T02:30:28;15.65;85.75
71173;DHT22;58875;51.996;4.504;2022-10-17T02:35:32;15.70;85.92
71173;DHT22;58875;51.996;4.504;2022-10-17T02:38:02;15.71;85.96
71173;DHT22;58875;51.996;4.504;2022-10-17T02:40:30;15.77;85.96
71173;DHT22;58875;51.996;4.504;2022-10-17T02:42:58;15.74;86.02
71173;DHT22;58875;51.996;4.504;2022-10-17T02:45:28;15.77;86.07
71173;DHT22;58875;51.996;4.504;2022-10-17T02:47:56;15.81;86.26
71173;DHT22;58875;51.996;4.504;2022-10-17T02:50:34;15.81;86.10
71173;DHT22;58875;51.996;4.504;2022-10-17T02:53:13;15.80;86.14
71173;DHT22;58875;51.996;4.504;2022-10-17T02:55:47;15.87;86.16
71173;DHT22;58875;51.996;4.504;2022-10-17T02:58:19;15.95;86.22
71173;DHT22;58875;51.996;4.504;2022-10-17T03:00:50;15.98;86.06
71173;DHT22;58875;51.996;4.504;2022-10-17T03:03:20;16.02;86.15
71173;DHT22;58875;51.996;4.504;2022-10-17T03:05:46;16.05;86.04
71173;DHT22;58875;51.996;4.504;2022-10-17T03:08:12;16.13;85.98
71173;DHT22;58875;51.996;4.504;2022-10-17T03:10:37;16.12;85.80
71173;DHT22;58875;51.996;4.504;2022-10-17T03:13:02;16.15;86.00
71173;DHT22;58875;51.996;4.504;2022-10-17T03:15:28;16.22;85.93
71173;DHT22;58875;51.996;4.504;2022-10-17T03:17:54;16.21;85.84
71173;DHT22;58875;51.996;4.504;2022-10-17T03:20:22;16.29;85.99
71173;DHT22;58875;51.996;4.504;2022-10-17T03:22:47;16.34;85.80
71173;DHT22;58875;51.996;4.504;2022-10-17T03:25:13;16.39;85.79
71173;DHT22;58875;51.996;4.504;2022-10-17T03:27:38;16.40;85.82
71173;DHT22;58875;51.996;4.504;2022-10-17T03:30:07;16.45;85.73
71173;DHT22;58875;51.996;4.504;2022-10-17T03:32:33;16.42;85.65
71173;DHT22;58875;51.996;4.504;2022-10-17T03:34:59;16.46;85.76
71173;DHT22;58875;51.996;4.504;2022-10-17T03:37:24;16.53;85.79
71173;DHT22;58875;51.996;4.504;2022-10-17T03:39:50;16.53;85.69
71173;DHT22;58875;51.996;4.504;2022-10-17T03:42:15;16.55;85.91
71173;DHT22;58875;51.996;4.504;2022-10-17T03:44:41;16.56;85.89
71173;DHT22;58875;51.996;4.504;2022-10-17T03:47:06;16.55;86.07
71173;DHT22;58875;51.996;4.504;2022-10-17T03:49:32;16.62;86.14
71173;DHT22;58875;51.996;4.504;2022-10-17T03:51:57;16.66;85.98
71173;DHT22;58875;51.996;4.504;2022-10-17T03:54:26;16.70;86.04
71173;DHT22;58875;51.996;4.504;2022-10-17T03:56:51;16.77;85.91
71173;DHT22;58875;51.996;4.504;2022-10-17T03:59:17;16.76;85.80
71173;DHT22;58875;51.996;4.504;2022-10-17T04:01:43;16.73;85.72
71173;DHT22;58875;51.996;4.504;2022-10-17T04:04:08;16.73;85.76
71173;DHT22;58875;51.996;4.504;2022-10-17T04:06:35;16.76;85.84
71173;DHT22;58875;51.996;4.504;2022-10-17T04:09:00;16.79;85.75
71173;DHT22;58875;51.996;4.504;2022-10-17T04:11:26;16.83;85.78
71173;DHT22;58875;51.996;4.504;2022-10-17T04:13:54;16.90;85.51
71173;DHT22;58875;51.996;4.504;2022-10-17T04:16:21;16.90;85.47
71173;DHT22;58875;51.996;4.504;2022-10-17T04:18:54;16.87;85.71
71173;DHT22;58875;51.996;4.504;2022-10-17T04:21:21;16.90;85.75
71173;DHT22;58875;51.996;4.504;2022-10-17T04:23:47;16.97;85.54
71173;DHT22;58875;51.996;4.504;2022-10-17T04:26:18;17.01;85.34
71173;DHT22;58875;51.996;4.504;2022-10-17T04:28:43;16.97;85.46
71173;DHT22;58875;51.996;4.504;2022-10-17T04:31:13;17.00;85.54
71173;DHT22;58875;51.996;4.504;2022-10-17T04:33:42;17.01;85.46
71173;DHT22;58875;51.996;4.504;2022-10-17T04:36:15;17.10;85.24
71173;DHT22;58875;51.996;4.504;2022-10-17T04:38:41;17.17;85.42
71173;DHT22;58875;51.996;4.504;2022-10-17T04:41:10;17.25;85.12
71173;DHT22;58875;51.996;4.504;2022-10-17T04:43:37;17.25;85.06
71173;DHT22;58875;51.996;4.504;2022-10-17T04:46:06;17.24;84.93
71173;DHT22;58875;51.996;4.504;2022-10-17T04:48:32;17.24;85.02
71173;DHT22;58875;51.996;4.504;2022-10-17T04:51:01;17.27;85.10
71173;DHT22;58875;51.996;4.504;2022-10-17T04:53:31;17.38;84.90
71173;DHT22;58875;51.996;4.504;2022-10-17T04:55:57;17.42;84.50
71173;DHT22;58875;51.996;4.504;2022-10-17T04:58:22;17.43;84.40
71173;DHT22;58875;51.996;4.504;2022-10-17T05:00:48;17.43;84.39
71173;DHT22;58875;51.996;4.504;2022-10-17T05:03:15;17.42;84.41
71173;DHT22;58875;51.996;4.504;2022-10-17T05:05:41;17.43;84.40
71173;DHT22;58875;51.996;4.504;2022-10-17T05:08:09;17.52;84.21
71173;DHT22;58875;51.996;4.504;2022-10-17T05:10:42;17.55;84.09
71173;DHT22;58875;51.996;4.504;2022-10-17T05:13:09;17.58;84.01
71173;DHT22;58875;51.996;4.504;2022-10-17T05:15:36;17.56;83.87
71173;DHT22;58875;51.996;4.504;2022-10-17T05:18:03;17.56;83.88
71173;DHT22;58875;51.996;4.504;2022-10-17T05:20:29;17.59;83.83
71173;DHT22;58875;51.996;4.504;2022-10-17T05:22:54;17.61;83.81
71173;DHT22;58875;51.996;4.504;2022-10-17T05:25:20;17.65;83.69
71173;DHT22;58875;51.996;4.504;2022-10-17T05:27:46;17.61;83.71
71173;DHT22;58875;51.996;4.504;2022-10-17T05:30:11;17.62;83.65
71173;DHT22;58875;51.996;4.504;2022-10-17T05:32:37;17.63;83.54
71173;DHT22;58875;51.996;4.504;2022-10-17T05:35:03;17.62;83.52
71173;DHT22;58875;51.996;4.504;2022-10-17T05:37:30;17.61;83.37
71173;DHT22;58875;51.996;4.504;2022-10-17T05:39:58;17.58;83.49
71173;DHT22;58875;51.996;4.504;2022-10-17T05:42:24;17.58;83.50
71173;DHT22;58875;51.996;4.504;2022-10-17T05:44:49;17.53;83.51
71173;DHT22;58875;51.996;4.504;2022-10-17T05:47:15;17.53;83.50
71173;DHT22;58875;51.996;4.504;2022-10-17T05:49:41;17.48;83.46
71173;DHT22;58875;51.996;4.504;2022-10-17T05:52:07;17.43;83.53
71173;DHT22;58875;51.996;4.504;2022-10-17T05:54:33;17.36;83.45
71173;DHT22;58875;51.996;4.504;2022-10-17T05:56:58;17.41;83.69
71173;DHT22;58875;51.996;4.504;2022-10-17T05:59:25;17.34;83.69
71173;DHT22;58875;51.996;4.504;2022-10-17T06:01:51;17.30;83.62
71173;DHT22;58875;51.996;4.504;2022-10-17T06:04:17;17.27;83.82
71173;DHT22;58875;51.996;4.504;2022-10-17T06:06:42;17.27;83.81
71173;DHT22;58875;51.996;4.504;2022-10-17T06:09:08;17.25;83.94
71173;DHT22;58875;51.996;4.504;2022-10-17T06:11:34;17.32;84.18
71173;DHT22;58875;51.996;4.504;2022-10-17T06:14:00;17.34;84.17
71173;DHT22;58875;51.996;4.504;2022-10-17T06:16:26;17.35;84.17
71173;DHT22;58875;51.996;4.504;2022-10-17T06:18:52;17.30;84.11
71173;DHT22;58875;51.996;4.504;2022-10-17T06:21:25;17.27;84.12
71173;DHT22;58875;51.996;4.504;2022-10-17T06:23:51;17.31;84.15
71173;DHT22;58875;51.996;4.504;2022-10-17T06:26:17;17.30;84.07
71173;DHT22;58875;51.996;4.504;2022-10-17T06:28:43;17.27;83.97
71173;DHT22;58875;51.996;4.504;2022-10-17T06:31:11;17.22;84.11
71173;DHT22;58875;51.996;4.504;2022-10-17T06:33:37;17.25;84.28
71173;DHT22;58875;51.996;4.504;2022-10-17T06:36:04;17.24;84.26
71173;DHT22;58875;51.996;4.504;2022-10-17T06:38:31;17.28;84.39
71173;DHT22;58875;51.996;4.504;2022-10-17T06:41:05;17.32;84.50
71173;DHT22;58875;51.996;4.504;2022-10-17T06:43:37;17.31;84.46
71173;DHT22;58875;51.996;4.504;2022-10-17T06:46:03;17.35;84.43
71173;DHT22;58875;51.996;4.504;2022-10-17T06:48:29;17.35;84.50
71173;DHT22;58875;51.996;4.504;2022-10-17T06:51:02;17.34;84.60
71173;DHT22;58875;51.996;4.504;2022-10-17T06:53:30;17.38;84.63
71173;DHT22;58875;51.996;4.504;2022-10-17T06:55:57;17.38;84.64
71173;DHT22;58875;51.996;4.504;2022-10-17T06:58:32;17.41;84.70
71173;DHT22;58875;51.996;4.504;2022-10-17T07:01:00;17.41;84.74
71173;DHT22;58875;51.996;4.504;2022-10-17T07:03:26;17.46;84.70
71173;DHT22;58875;51.996;4.504;2022-10-17T07:05:53;17.51;84.70
71173;DHT22;58875;51.996;4.504;2022-10-17T07:08:19;17.52;84.72
71173;DHT22;58875;51.996;4.504;2022-10-17T07:10:44;17.46;84.85
71173;DHT22;58875;51.996;4.504;2022-10-17T07:13:10;17.48;84.87
71173;DHT22;58875;51.996;4.504;2022-10-17T07:15:36;17.46;85.06
71173;DHT22;58875;51.996;4.504;2022-10-17T07:18:02;17.55;84.91
71173;DHT22;58875;51.996;4.504;2022-10-17T07:20:28;17.55;85.05
71173;DHT22;58875;51.996;4.504;2022-10-17T07:22:53;17.51;85.29
71173;DHT22;58875;51.996;4.504;2022-10-17T07:25:19;17.46;85.72
71173;DHT22;58875;51.996;4.504;2022-10-17T07:27:45;17.56;85.74
71173;DHT22;58875;51.996;4.504;2022-10-17T07:30:10;17.53;85.86
71173;DHT22;58875;51.996;4.504;2022-10-17T07:32:36;17.53;85.92
71173;DHT22;58875;51.996;4.504;2022-10-17T07:35:02;17.49;86.25
71173;DHT22;58875;51.996;4.504;2022-10-17T07:37:28;17.48;86.64
71173;DHT22;58875;51.996;4.504;2022-10-17T07:39:54;17.52;86.63
71173;DHT22;58875;51.996;4.504;2022-10-17T07:42:21;17.58;86.68
71173;DHT22;58875;51.996;4.504;2022-10-17T07:44:47;17.61;86.65
71173;DHT22;58875;51.996;4.504;2022-10-17T07:47:12;17.55;87.12
71173;DHT22;58875;51.996;4.504;2022-10-17T07:49:38;17.55;87.35
71173;DHT22;58875;51.996;4.504;2022-10-17T07:52:09;17.59;87.40
71173;DHT22;58875;51.996;4.504;2022-10-17T07:54:35;17.65;87.48
71173;DHT22;58875;51.996;4.504;2022-10-17T07:57:01;17.61;87.69
71173;DHT22;58875;51.996;4.504;2022-10-17T07:59:26;17.66;87.59
71173;DHT22;58875;51.996;4.504;2022-10-17T08:01:54;17.71;87.55
71173;DHT22;58875;51.996;4.504;2022-10-17T08:04:20;17.71;87.63
71173;DHT22;58875;51.996;4.504;2022-10-17T08:06:46;17.71;87.63
71173;DHT22;58875;51.996;4.504;2022-10-17T08:09:11;17.66;87.90
71173;DHT22;58875;51.996;4.504;2022-10-17T08:11:37;17.65;88.03
71173;DHT22;58875;51.996;4.504;2022-10-17T08:14:03;17.69;87.87
71173;DHT22;58875;51.996;4.504;2022-10-17T08:16:28;17.69;87.92
71173;DHT22;58875;51.996;4.504;2022-10-17T08:18:54;17.73;87.78
71173;DHT22;58875;51.996;4.504;2022-10-17T08:21:19;17.73;87.87
71173;DHT22;58875;51.996;4.504;2022-10-17T08:23:45;17.73;87.61
71173;DHT22;58875;51.996;4.504;2022-10-17T08:26:12;17.79;87.53
71173;DHT22;58875;51.996;4.504;2022-10-17T08:28:41;17.83;87.50
71173;DHT22;58875;51.996;4.504;2022-10-17T08:31:12;17.85;87.29
71173;DHT22;58875;51.996;4.504;2022-10-17T08:33:38;17.83;87.43
71173;DHT22;58875;51.996;4.504;2022-10-17T08:36:05;17.86;87.39
71173;DHT22;58875;51.996;4.504;2022-10-17T08:38:32;17.90;87.37
71173;DHT22;58875;51.996;4.504;2022-10-17T08:41:05;17.94;87.20
71173;DHT22;58875;51.996;4.504;2022-10-17T08:46:31;17.99;87.09
71173;DHT22;58875;51.996;4.504;2022-10-17T08:49:01;18.02;87.01
71173;DHT22;58875;51.996;4.504;2022-10-17T08:51:32;18.00;87.10
71173;DHT22;58875;51.996;4.504;2022-10-17T08:56:44;18.04;86.96
71173;DHT22;58875;51.996;4.504;2022-10-17T08:59:12;18.07;87.00
71173;DHT22;58875;51.996;4.504;2022-10-17T09:01:44;18.04;86.97
71173;DHT22;58875;51.996;4.504;2022-10-17T09:12:23;18.09;87.08
71173;DHT22;58875;51.996;4.504;2022-10-17T09:21:09;18.07;87.31
71173;DHT22;58875;51.996;4.504;2022-10-17T09:23:49;18.07;87.46
71173;DHT22;58875;51.996;4.504;2022-10-17T09:26:15;18.10;87.30
71173;DHT22;58875;51.996;4.504;2022-10-17T09:28:42;18.14;87.15
71173;DHT22;58875;51.996;4.504;2022-10-17T09:33:49;18.06;87.46
71173;DHT22;58875;51.996;4.504;2022-10-17T09:36:31;17.99;87.12
71173;DHT22;58875;51.996;4.504;2022-10-17T09:39:00;17.86;87.57
71173;DHT22;58875;51.996;4.504;2022-10-17T09:41:36;17.87;87.62
71173;DHT22;58875;51.996;4.504;2022-10-17T09:44:22;17.86;87.73
71173;DHT22;58875;51.996;4.504;2022-10-17T09:46:55;17.92;87.81
71173;DHT22;58875;51.996;4.504;2022-10-17T09:49:36;17.93;87.88
71173;DHT22;58875;51.996;4.504;2022-10-17T09:52:09;17.96;87.53
71173;DHT22;58875;51.996;4.504;2022-10-17T09:54:51;17.94;87.69
71173;DHT22;58875;51.996;4.504;2022-10-17T09:57:20;18.03;87.56
71173;DHT22;58875;51.996;4.504;2022-10-17T10:00:06;17.90;87.41
71173;DHT22;58875;51.996;4.504;2022-10-17T10:02:31;17.92;87.56
71173;DHT22;58875;51.996;4.504;2022-10-17T10:05:13;17.89;87.64
71173;DHT22;58875;51.996;4.504;2022-10-17T10:07:45;17.87;87.73
71173;DHT22;58875;51.996;4.504;2022-10-17T10:10:27;17.92;87.57
71173;DHT22;58875;51.996;4.504;2022-10-17T10:13:16;17.82;87.68
71173;DHT22;58875;51.996;4.504;2022-10-17T10:15:48;17.75;87.86
71173;DHT22;58875;51.996;4.504;2022-10-17T10:21:15;17.51;87.92
71173;DHT22;58875;51.996;4.504;2022-10-17T10:24:02;17.46;88.40
71173;DHT22;58875;51.996;4.504;2022-10-17T10:26:40;17.51;88.40
71173;DHT22;58875;51.996;4.504;2022-10-17T10:31:46;17.49;88.25
71173;DHT22;58875;51.996;4.504;2022-10-17T10:36:46;17.38;88.60
71173;DHT22;58875;51.996;4.504;2022-10-17T10:39:32;17.36;88.60
71173;DHT22;58875;51.996;4.504;2022-10-17T10:42:02;17.46;88.40
71173;DHT22;58875;51.996;4.504;2022-10-17T10:44:31;17.28;88.54
71173;DHT22;58875;51.996;4.504;2022-10-17T10:47:17;17.20;88.79
71173;DHT22;58875;51.996;4.504;2022-10-17T10:49:44;17.18;88.98
71173;DHT22;58875;51.996;4.504;2022-10-17T10:52:20;17.14;88.91
71173;DHT22;58875;51.996;4.504;2022-10-17T10:54:56;17.01;88.53
71173;DHT22;58875;51.996;4.504;2022-10-17T10:57:28;16.73;87.45
71173;DHT22;58875;51.996;4.504;2022-10-17T11:00:10;16.50;88.00
71173;DHT22;58875;51.996;4.504;2022-10-17T11:02:57;16.46;88.23
71173;DHT22;58875;51.996;4.504;2022-10-17T11:05:48;16.43;88.36
71173;DHT22;58875;51.996;4.504;2022-10-17T11:14:07;16.69;88.06
71173;DHT22;58875;51.996;4.504;2022-10-17T11:16:58;16.85;88.03
71173;DHT22;58875;51.996;4.504;2022-10-17T11:19:36;16.95;87.54
71173;DHT22;58875;51.996;4.504;2022-10-17T11:22:15;17.14;87.41
71173;DHT22;58875;51.996;4.504;2022-10-17T11:24:58;17.24;87.17
71173;DHT22;58875;51.996;4.504;2022-10-17T11:27:28;17.32;87.05
71173;DHT22;58875;51.996;4.504;2022-10-17T11:29:54;17.42;87.41
71173;DHT22;58875;51.996;4.504;2022-10-17T11:35:18;17.62;87.00
71173;DHT22;58875;51.996;4.504;2022-10-17T11:37:57;17.59;86.85
71173;DHT22;58875;51.996;4.504;2022-10-17T11:40:39;17.75;87.00
71173;DHT22;58875;51.996;4.504;2022-10-17T11:45:51;17.78;86.81
71173;DHT22;58875;51.996;4.504;2022-10-17T11:51:03;17.86;86.76
71173;DHT22;58875;51.996;4.504;2022-10-17T11:53:42;17.94;86.62
71173;DHT22;58875;51.996;4.504;2022-10-17T11:56:11;18.03;86.57
71173;DHT22;58875;51.996;4.504;2022-10-17T11:58:49;18.07;86.66
71173;DHT22;58875;51.996;4.504;2022-10-17T12:01:21;18.23;86.60
71173;DHT22;58875;51.996;4.504;2022-10-17T12:07:00;18.36;86.14
71173;DHT22;58875;51.996;4.504;2022-10-17T12:12:02;18.27;85.33
71173;DHT22;58875;51.996;4.504;2022-10-17T12:20:25;18.26;83.21
71173;DHT22;58875;51.996;4.504;2022-10-17T12:22:59;18.24;82.79
71173;DHT22;58875;51.996;4.504;2022-10-17T12:25:28;18.30;83.23
71173;DHT22;58875;51.996;4.504;2022-10-17T12:30:30;18.47;82.68
71173;DHT22;58875;51.996;4.504;2022-10-17T12:33:03;18.47;82.34
71173;DHT22;58875;51.996;4.504;2022-10-17T12:35:32;18.43;82.37
71173;DHT22;58875;51.996;4.504;2022-10-17T12:38:04;18.34;82.64
71173;DHT22;58875;51.996;4.504;2022-10-17T12:46:01;18.31;82.05
71173;DHT22;58875;51.996;4.504;2022-10-17T12:56:21;18.31;82.78
71173;DHT22;58875;51.996;4.504;2022-10-17T12:58:55;18.30;82.05
71173;DHT22;58875;51.996;4.504;2022-10-17T13:01:31;18.31;82.09
71173;DHT22;58875;51.996;4.504;2022-10-17T13:04:00;18.27;82.20
71173;DHT22;58875;51.996;4.504;2022-10-17T13:06:37;18.30;82.03
71173;DHT22;58875;51.996;4.504;2022-10-17T13:09:14;18.23;82.12
71173;DHT22;58875;51.996;4.504;2022-10-17T13:11:42;18.31;82.26
71173;DHT22;58875;51.996;4.504;2022-10-17T13:14:12;18.29;82.32
71173;DHT22;58875;51.996;4.504;2022-10-17T13:16:53;18.22;82.01
71173;DHT22;58875;51.996;4.504;2022-10-17T13:19:23;18.26;81.92
71173;DHT22;58875;51.996;4.504;2022-10-17T13:21:55;18.29;81.87
71173;DHT22;58875;51.996;4.504;2022-10-17T13:24:39;18.31;81.95
71173;DHT22;58875;51.996;4.504;2022-10-17T13:27:32;18.29;81.75
71173;DHT22;58875;51.996;4.504;2022-10-17T13:30:00;18.26;81.63
71173;DHT22;58875;51.996;4.504;2022-10-17T13:32:36;18.27;80.91
71173;DHT22;58875;51.996;4.504;2022-10-17T13:35:11;18.34;80.82
71173;DHT22;58875;51.996;4.504;2022-10-17T13:37:43;18.36;80.56
71173;DHT22;58875;51.996;4.504;2022-10-17T13:40:22;18.47;80.84
71173;DHT22;58875;51.996;4.504;2022-10-17T13:42:50;18.51;80.74
71173;DHT22;58875;51.996;4.504;2022-10-17T13:45:28;18.45;80.67
71173;DHT22;58875;51.996;4.504;2022-10-17T13:47:56;18.53;80.00
71173;DHT22;58875;51.996;4.504;2022-10-17T13:50:33;18.43;80.56
71173;DHT22;58875;51.996;4.504;2022-10-17T13:58:28;18.55;80.03
71173;DHT22;58875;51.996;4.504;2022-10-17T14:00:56;18.68;80.60
71173;DHT22;58875;51.996;4.504;2022-10-17T14:03:22;18.85;80.13
71173;DHT22;58875;51.996;4.504;2022-10-17T14:06:17;18.99;80.08
71173;DHT22;58875;51.996;4.504;2022-10-17T14:08:51;19.15;79.83
71173;DHT22;58875;51.996;4.504;2022-10-17T14:11:29;19.15;78.77
71173;DHT22;58875;51.996;4.504;2022-10-17T14:13:58;18.95;78.68
71173;DHT22;58875;51.996;4.504;2022-10-17T14:16:26;18.79;79.42
71173;DHT22;58875;51.996;4.504;2022-10-17T14:18:58;18.78;79.62
71173;DHT22;58875;51.996;4.504;2022-10-17T14:21:25;18.75;80.05
71173;DHT22;58875;51.996;4.504;2022-10-17T14:24:25;18.75;79.83
71173;DHT22;58875;51.996;4.504;2022-10-17T14:26:54;18.64;80.07
71173;DHT22;58875;51.996;4.504;2022-10-17T14:29:26;18.58;80.20
71173;DHT22;58875;51.996;4.504;2022-10-17T14:32:06;18.58;79.79
71173;DHT22;58875;51.996;4.504;2022-10-17T14:34:39;18.58;80.14
71173;DHT22;58875;51.996;4.504;2022-10-17T14:37:31;18.50;79.66
71173;DHT22;58875;51.996;4.504;2022-10-17T14:39:59;18.45;80.15
71173;DHT22;58875;51.996;4.504;2022-10-17T14:42:25;18.37;80.09
71173;DHT22;58875;51.996;4.504;2022-10-17T14:44:53;18.37;79.80
71173;DHT22;58875;51.996;4.504;2022-10-17T14:47:26;18.37;79.93
71173;DHT22;58875;51.996;4.504;2022-10-17T14:50:15;18.43;79.88
71173;DHT22;58875;51.996;4.504;2022-10-17T14:55:39;18.54;79.43
71173;DHT22;58875;51.996;4.504;2022-10-17T14:58:27;18.47;79.26
71173;DHT22;58875;51.996;4.504;2022-10-17T15:00:53;18.40;79.51
71173;DHT22;58875;51.996;4.504;2022-10-17T15:03:19;18.40;79.44
71173;DHT22;58875;51.996;4.504;2022-10-17T15:05:46;18.41;79.81
71173;DHT22;58875;51.996;4.504;2022-10-17T15:08:17;18.34;79.74
71173;DHT22;58875;51.996;4.504;2022-10-17T15:10:45;18.34;80.02
71173;DHT22;58875;51.996;4.504;2022-10-17T15:13:12;18.36;79.95
71173;DHT22;58875;51.996;4.504;2022-10-17T15:15:39;18.34;79.69
71173;DHT22;58875;51.996;4.504;2022-10-17T15:18:08;18.36;79.91
71173;DHT22;58875;51.996;4.504;2022-10-17T15:20:34;18.34;80.13
71173;DHT22;58875;51.996;4.504;2022-10-17T15:23:01;18.34;80.27
71173;DHT22;58875;51.996;4.504;2022-10-17T15:25:29;18.33;80.13
71173;DHT22;58875;51.996;4.504;2022-10-17T15:27:55;18.33;80.34
71173;DHT22;58875;51.996;4.504;2022-10-17T15:30:24;18.34;80.37
71173;DHT22;58875;51.996;4.504;2022-10-17T15:32:51;18.36;80.41
71173;DHT22;58875;51.996;4.504;2022-10-17T15:35:18;18.36;80.37
71173;DHT22;58875;51.996;4.504;2022-10-17T15:37:45;18.33;80.07
71173;DHT22;58875;51.996;4.504;2022-10-17T15:40:23;18.24;80.46
71173;DHT22;58875;51.996;4.504;2022-10-17T15:42:52;18.24;80.44
71173;DHT22;58875;51.996;4.504;2022-10-17T15:45:19;18.27;80.55
71173;DHT22;58875;51.996;4.504;2022-10-17T15:48:05;18.16;80.72
71173;DHT22;58875;51.996;4.504;2022-10-17T15:50:31;18.16;80.71
71173;DHT22;58875;51.996;4.504;2022-10-17T15:52:58;18.12;80.53
71173;DHT22;58875;51.996;4.504;2022-10-17T15:55:24;18.10;80.22
71173;DHT22;58875;51.996;4.504;2022-10-17T15:57:50;18.00;80.45
71173;DHT22;58875;51.996;4.504;2022-10-17T16:00:21;17.93;80.42
71173;DHT22;58875;51.996;4.504;2022-10-17T16:02:48;17.92;80.29
71173;DHT22;58875;51.996;4.504;2022-10-17T16:05:16;17.93;80.57
71173;DHT22;58875;51.996;4.504;2022-10-17T16:07:44;17.87;80.45
71173;DHT22;58875;51.996;4.504;2022-10-17T16:10:12;17.93;80.35
71173;DHT22;58875;51.996;4.504;2022-10-17T16:12:38;17.96;80.40
71173;DHT22;58875;51.996;4.504;2022-10-17T16:15:17;17.96;80.21
71173;DHT22;58875;51.996;4.504;2022-10-17T16:17:43;17.90;80.39
71173;DHT22;58875;51.996;4.504;2022-10-17T16:20:12;17.92;80.36
71173;DHT22;58875;51.996;4.504;2022-10-17T16:22:40;17.87;80.30
71173;DHT22;58875;51.996;4.504;2022-10-17T16:25:27;17.76;80.16
71173;DHT22;58875;51.996;4.504;2022-10-17T16:27:55;17.76;80.25
71173;DHT22;58875;51.996;4.504;2022-10-17T16:30:23;17.78;80.13
71173;DHT22;58875;51.996;4.504;2022-10-17T16:32:51;17.76;79.98
71173;DHT22;58875;51.996;4.504;2022-10-17T16:35:20;17.71;80.00
71173;DHT22;58875;51.996;4.504;2022-10-17T16:37:46;17.65;80.27
71173;DHT22;58875;51.996;4.504;2022-10-17T16:40:12;17.62;80.21
71173;DHT22;58875;51.996;4.504;2022-10-17T16:42:38;17.58;80.39
71173;DHT22;58875;51.996;4.504;2022-10-17T16:45:04;17.52;80.59
71173;DHT22;58875;51.996;4.504;2022-10-17T16:47:30;17.55;80.53
71173;DHT22;58875;51.996;4.504;2022-10-17T16:49:58;17.56;80.48
71173;DHT22;58875;51.996;4.504;2022-10-17T16:52:27;17.51;80.74
71173;DHT22;58875;51.996;4.504;2022-10-17T16:54:52;17.55;80.73
71173;DHT22;58875;51.996;4.504;2022-10-17T16:57:18;17.51;80.63
71173;DHT22;58875;51.996;4.504;2022-10-17T16:59:44;17.49;80.72
71173;DHT22;58875;51.996;4.504;2022-10-17T17:02:10;17.49;80.88
71173;DHT22;58875;51.996;4.504;2022-10-17T17:04:36;17.49;80.92
71173;DHT22;58875;51.996;4.504;2022-10-17T17:07:02;17.48;80.89
71173;DHT22;58875;51.996;4.504;2022-10-17T17:09:27;17.46;81.14
71173;DHT22;58875;51.996;4.504;2022-10-17T17:11:53;17.51;81.06
71173;DHT22;58875;51.996;4.504;2022-10-17T17:14:19;17.43;81.04
71173;DHT22;58875;51.996;4.504;2022-10-17T17:16:44;17.43;81.18
71173;DHT22;58875;51.996;4.504;2022-10-17T17:21:50;17.36;81.57
71173;DHT22;58875;51.996;4.504;2022-10-17T17:24:17;17.41;81.41
71173;DHT22;58875;51.996;4.504;2022-10-17T17:26:50;17.38;81.61
71173;DHT22;58875;51.996;4.504;2022-10-17T17:29:16;17.38;81.58
71173;DHT22;58875;51.996;4.504;2022-10-17T17:31:42;17.43;81.42
71173;DHT22;58875;51.996;4.504;2022-10-17T17:34:08;17.45;81.26
71173;DHT22;58875;51.996;4.504;2022-10-17T17:36:35;17.39;81.22
71173;DHT22;58875;51.996;4.504;2022-10-17T17:39:06;17.39;81.50
71173;DHT22;58875;51.996;4.504;2022-10-17T17:41:33;17.32;81.59